sensor_id;sensor_type;location;lat;lon;timestamp;temperature;humidity
34644;DHT22;26931;43.498;-1.506;2022-08-25T00:00:44;25.40;92.00
34644;DHT22;26931;43.498;-1.506;2022-08-25T00:03:11;25.40;92.00
34644;DHT22;26931;43.498;-1.506;2022-08-25T00:05:37;25.40;92.10
34644;DHT22;26931;43.498;-1.506;2022-08-25T00:08:03;25.60;92.20
34644;DHT22;26931;43.498;-1.506;2022-08-25T00:10:33;25.20;92.10
34644;DHT22;26931;43.498;-1.506;2022-08-25T00:13:00;25.30;92.30
34644;DHT22;26931;43.498;-1.506;2022-08-25T00:15:26;25.30;92.30
34644;DHT22;26931;43.498;-1.506;2022-08-25T00:17:52;25.30;92.30
34644;DHT22;26931;43.498;-1.506;2022-08-25T00:20:18;25.30;92.30
34644;DHT22;26931;43.498;-1.506;2022-08-25T00:22:44;25.20;92.30
34644;DHT22;26931;43.498;-1.506;2022-08-25T00:25:10;25.30;92.30
34644;DHT22;26931;43.498;-1.506;2022-08-25T00:27:37;25.30;92.40
34644;DHT22;26931;43.498;-1.506;2022-08-25T00:30:03;25.30;92.40
34644;DHT22;26931;43.498;-1.506;2022-08-25T00:32:30;25.20;92.40
34644;DHT22;26931;43.498;-1.506;2022-08-25T00:34:56;25.30;92.50
34644;DHT22;26931;43.498;-1.506;2022-08-25T00:37:22;25.30;92.50
34644;DHT22;26931;43.498;-1.506;2022-08-25T00:39:48;25.30;92.50
34644;DHT22;26931;43.498;-1.506;2022-08-25T00:42:14;25.30;92.50
34644;DHT22;26931;43.498;-1.506;2022-08-25T00:44:41;25.30;92.50
34644;DHT22;26931;43.498;-1.506;2022-08-25T00:47:08;25.30;92.50
34644;DHT22;26931;43.498;-1.506;2022-08-25T00:49:45;25.30;92.50
34644;DHT22;26931;43.498;-1.506;2022-08-25T00:54:39;25.30;92.50
34644;DHT22;26931;43.498;-1.506;2022-08-25T00:57:08;25.30;92.60
34644;DHT22;26931;43.498;-1.506;2022-08-25T00:59:35;25.30;92.60
34644;DHT22;26931;43.498;-1.506;2022-08-25T01:02:02;25.30;92.60
34644;DHT22;26931;43.498;-1.506;2022-08-25T01:04:28;25.30;92.60
34644;DHT22;26931;43.498;-1.506;2022-08-25T01:06:54;25.20;92.60
34644;DHT22;26931;43.498;-1.506;2022-08-25T01:09:21;25.30;92.60
34644;DHT22;26931;43.498;-1.506;2022-08-25T01:11:46;25.20;92.60
34644;DHT22;26931;43.498;-1.506;2022-08-25T01:14:14;25.30;92.70
34644;DHT22;26931;43.498;-1.506;2022-08-25T01:16:40;25.30;92.70
34644;DHT22;26931;43.498;-1.506;2022-08-25T01:19:08;25.20;92.70
34644;DHT22;26931;43.498;-1.506;2022-08-25T01:21:40;25.20;92.80
34644;DHT22;26931;43.498;-1.506;2022-08-25T01:24:07;25.10;92.80
34644;DHT22;26931;43.498;-1.506;2022-08-25T01:26:34;25.10;92.80
34644;DHT22;26931;43.498;-1.506;2022-08-25T01:29:01;25.10;92.80
34644;DHT22;26931;43.498;-1.506;2022-08-25T01:31:46;25.00;92.80
34644;DHT22;26931;43.498;-1.506;2022-08-25T01:34:14;25.00;92.80
34644;DHT22;26931;43.498;-1.506;2022-08-25T01:36:41;25.00;92.80
34644;DHT22;26931;43.498;-1.506;2022-08-25T01:39:07;25.10;92.90
34644;DHT22;26931;43.498;-1.506;2022-08-25T01:43:59;24.90;92.70
34644;DHT22;26931;43.498;-1.506;2022-08-25T01:46:26;24.80;92.80
34644;DHT22;26931;43.498;-1.506;2022-08-25T01:48:52;24.80;92.80
34644;DHT22;26931;43.498;-1.506;2022-08-25T01:51:22;24.90;92.90
34644;DHT22;26931;43.498;-1.506;2022-08-25T01:53:48;24.80;92.90
34644;DHT22;26931;43.498;-1.506;2022-08-25T01:56:16;24.70;92.90
34644;DHT22;26931;43.498;-1.506;2022-08-25T01:58:46;24.80;93.00
34644;DHT22;26931;43.498;-1.506;2022-08-25T02:01:13;24.80;93.00
34644;DHT22;26931;43.498;-1.506;2022-08-25T02:03:41;24.70;92.90
34644;DHT22;26931;43.498;-1.506;2022-08-25T02:06:07;24.90;92.90
34644;DHT22;26931;43.498;-1.506;2022-08-25T02:08:33;24.70;92.90
34644;DHT22;26931;43.498;-1.506;2022-08-25T02:10:59;24.80;92.90
34644;DHT22;26931;43.498;-1.506;2022-08-25T02:13:26;24.80;92.80
34644;DHT22;26931;43.498;-1.506;2022-08-25T02:15:53;24.70;92.80
34644;DHT22;26931;43.498;-1.506;2022-08-25T02:18:20;24.70;92.80
34644;DHT22;26931;43.498;-1.506;2022-08-25T02:20:46;24.70;92.80
34644;DHT22;26931;43.498;-1.506;2022-08-25T02:23:12;24.70;92.80
34644;DHT22;26931;43.498;-1.506;2022-08-25T02:25:39;24.70;92.80
34644;DHT22;26931;43.498;-1.506;2022-08-25T02:28:05;24.60;92.80
34644;DHT22;26931;43.498;-1.506;2022-08-25T02:30:31;24.80;92.80
34644;DHT22;26931;43.498;-1.506;2022-08-25T02:32:57;24.70;92.70
34644;DHT22;26931;43.498;-1.506;2022-08-25T02:35:22;24.80;92.80
34644;DHT22;26931;43.498;-1.506;2022-08-25T02:37:52;24.60;92.80
34644;DHT22;26931;43.498;-1.506;2022-08-25T02:40:18;24.60;92.70
34644;DHT22;26931;43.498;-1.506;2022-08-25T02:42:46;24.50;92.70
34644;DHT22;26931;43.498;-1.506;2022-08-25T02:45:12;24.50;92.80
34644;DHT22;26931;43.498;-1.506;2022-08-25T02:47:38;24.40;92.80
34644;DHT22;26931;43.498;-1.506;2022-08-25T02:50:04;24.40;92.90
34644;DHT22;26931;43.498;-1.506;2022-08-25T02:52:30;24.30;92.90
34644;DHT22;26931;43.498;-1.506;2022-08-25T02:54:56;24.30;92.90
34644;DHT22;26931;43.498;-1.506;2022-08-25T02:57:21;24.20;93.00
34644;DHT22;26931;43.498;-1.506;2022-08-25T02:59:47;24.20;93.00
34644;DHT22;26931;43.498;-1.506;2022-08-25T03:02:14;24.20;93.10
34644;DHT22;26931;43.498;-1.506;2022-08-25T03:04:40;24.20;93.10
34644;DHT22;26931;43.498;-1.506;2022-08-25T03:07:06;24.10;93.10
34644;DHT22;26931;43.498;-1.506;2022-08-25T03:09:31;24.10;93.10
34644;DHT22;26931;43.498;-1.506;2022-08-25T03:11:57;24.10;93.20
34644;DHT22;26931;43.498;-1.506;2022-08-25T03:14:22;24.10;93.20
34644;DHT22;26931;43.498;-1.506;2022-08-25T03:16:48;24.00;93.30
34644;DHT22;26931;43.498;-1.506;2022-08-25T03:19:14;23.90;93.50
34644;DHT22;26931;43.498;-1.506;2022-08-25T03:21:41;23.90;93.60
34644;DHT22;26931;43.498;-1.506;2022-08-25T03:24:07;23.80;93.60
34644;DHT22;26931;43.498;-1.506;2022-08-25T03:26:32;23.70;93.90
34644;DHT22;26931;43.498;-1.506;2022-08-25T03:29:17;23.70;94.20
34644;DHT22;26931;43.498;-1.506;2022-08-25T03:31:42;23.70;94.00
34644;DHT22;26931;43.498;-1.506;2022-08-25T03:34:16;23.70;94.10
34644;DHT22;26931;43.498;-1.506;2022-08-25T03:36:42;23.70;94.10
34644;DHT22;26931;43.498;-1.506;2022-08-25T03:39:09;23.80;94.10
34644;DHT22;26931;43.498;-1.506;2022-08-25T03:41:35;23.70;94.10
34644;DHT22;26931;43.498;-1.506;2022-08-25T03:44:01;23.70;94.10
34644;DHT22;26931;43.498;-1.506;2022-08-25T03:46:30;23.70;94.20
34644;DHT22;26931;43.498;-1.506;2022-08-25T03:48:56;23.60;94.10
34644;DHT22;26931;43.498;-1.506;2022-08-25T03:51:23;23.70;94.20
34644;DHT22;26931;43.498;-1.506;2022-08-25T03:53:50;23.80;94.10
34644;DHT22;26931;43.498;-1.506;2022-08-25T03:56:16;23.80;94.10
34644;DHT22;26931;43.498;-1.506;2022-08-25T03:58:41;23.80;94.10
34644;DHT22;26931;43.498;-1.506;2022-08-25T04:01:13;23.90;94.10
34644;DHT22;26931;43.498;-1.506;2022-08-25T04:03:39;23.90;94.00
34644;DHT22;26931;43.498;-1.506;2022-08-25T04:06:05;23.90;93.90
34644;DHT22;26931;43.498;-1.506;2022-08-25T04:08:31;23.90;93.80
34644;DHT22;26931;43.498;-1.506;2022-08-25T04:10:57;23.90;93.70
34644;DHT22;26931;43.498;-1.506;2022-08-25T04:13:23;23.90;93.80
34644;DHT22;26931;43.498;-1.506;2022-08-25T04:15:48;23.90;93.80
34644;DHT22;26931;43.498;-1.506;2022-08-25T04:18:14;23.90;93.80
34644;DHT22;26931;43.498;-1.506;2022-08-25T04:20:40;23.90;93.70
34644;DHT22;26931;43.498;-1.506;2022-08-25T04:23:07;23.90;93.80
34644;DHT22;26931;43.498;-1.506;2022-08-25T04:25:33;23.80;93.70
34644;DHT22;26931;43.498;-1.506;2022-08-25T04:27:59;23.90;93.70
34644;DHT22;26931;43.498;-1.506;2022-08-25T04:30:25;24.00;93.70
34644;DHT22;26931;43.498;-1.506;2022-08-25T04:32:50;23.70;93.70
34644;DHT22;26931;43.498;-1.506;2022-08-25T04:35:16;23.80;93.70
34644;DHT22;26931;43.498;-1.506;2022-08-25T04:37:41;23.80;94.10
34644;DHT22;26931;43.498;-1.506;2022-08-25T04:40:07;23.80;93.70
34644;DHT22;26931;43.498;-1.506;2022-08-25T04:42:34;23.80;93.80
34644;DHT22;26931;43.498;-1.506;2022-08-25T04:45:00;23.80;93.80
34644;DHT22;26931;43.498;-1.506;2022-08-25T04:47:26;23.80;93.70
34644;DHT22;26931;43.498;-1.506;2022-08-25T04:49:52;23.70;93.80
34644;DHT22;26931;43.498;-1.506;2022-08-25T04:52:18;23.80;93.80
34644;DHT22;26931;43.498;-1.506;2022-08-25T04:54:45;23.70;93.90
34644;DHT22;26931;43.498;-1.506;2022-08-25T04:57:11;23.60;94.00
34644;DHT22;26931;43.498;-1.506;2022-08-25T04:59:37;23.50;94.10
34644;DHT22;26931;43.498;-1.506;2022-08-25T05:02:03;23.60;94.10
34644;DHT22;26931;43.498;-1.506;2022-08-25T05:04:34;23.60;94.20
34644;DHT22;26931;43.498;-1.506;2022-08-25T05:07:00;23.80;94.20
34644;DHT22;26931;43.498;-1.506;2022-08-25T05:09:26;23.70;94.20
34644;DHT22;26931;43.498;-1.506;2022-08-25T05:11:52;23.80;94.30
34644;DHT22;26931;43.498;-1.506;2022-08-25T05:14:19;23.80;94.30
34644;DHT22;26931;43.498;-1.506;2022-08-25T05:16:47;23.80;94.30
34644;DHT22;26931;43.498;-1.506;2022-08-25T05:19:13;23.80;94.30
34644;DHT22;26931;43.498;-1.506;2022-08-25T05:21:38;23.90;94.30
34644;DHT22;26931;43.498;-1.506;2022-08-25T05:24:05;24.10;94.40
34644;DHT22;26931;43.498;-1.506;2022-08-25T05:26:32;23.90;94.30
34644;DHT22;26931;43.498;-1.506;2022-08-25T05:28:59;24.00;94.40
34644;DHT22;26931;43.498;-1.506;2022-08-25T05:31:25;24.00;94.40
34644;DHT22;26931;43.498;-1.506;2022-08-25T05:33:52;24.00;94.40
34644;DHT22;26931;43.498;-1.506;2022-08-25T05:36:19;24.20;94.50
34644;DHT22;26931;43.498;-1.506;2022-08-25T05:38:45;24.00;94.40
34644;DHT22;26931;43.498;-1.506;2022-08-25T05:41:12;24.00;94.50
34644;DHT22;26931;43.498;-1.506;2022-08-25T05:43:40;24.00;94.50
34644;DHT22;26931;43.498;-1.506;2022-08-25T05:46:06;24.00;94.50
34644;DHT22;26931;43.498;-1.506;2022-08-25T05:48:32;24.00;94.50
34644;DHT22;26931;43.498;-1.506;2022-08-25T05:50:59;24.00;94.50
34644;DHT22;26931;43.498;-1.506;2022-08-25T05:53:26;24.10;94.50
34644;DHT22;26931;43.498;-1.506;2022-08-25T05:55:52;24.10;94.50
34644;DHT22;26931;43.498;-1.506;2022-08-25T05:58:18;24.20;94.50
34644;DHT22;26931;43.498;-1.506;2022-08-25T06:00:45;24.20;94.40
34644;DHT22;26931;43.498;-1.506;2022-08-25T06:03:11;24.30;94.40
34644;DHT22;26931;43.498;-1.506;2022-08-25T06:05:36;24.40;94.30
34644;DHT22;26931;43.498;-1.506;2022-08-25T06:08:02;24.30;94.30
34644;DHT22;26931;43.498;-1.506;2022-08-25T06:10:28;24.30;94.20
34644;DHT22;26931;43.498;-1.506;2022-08-25T06:12:54;24.30;94.10
34644;DHT22;26931;43.498;-1.506;2022-08-25T06:15:21;24.50;94.20
34644;DHT22;26931;43.498;-1.506;2022-08-25T06:17:47;24.30;94.10
34644;DHT22;26931;43.498;-1.506;2022-08-25T06:20:15;24.30;94.10
34644;DHT22;26931;43.498;-1.506;2022-08-25T06:22:41;24.30;94.00
34644;DHT22;26931;43.498;-1.506;2022-08-25T06:25:08;24.30;93.90
34644;DHT22;26931;43.498;-1.506;2022-08-25T06:27:34;24.30;93.80
34644;DHT22;26931;43.498;-1.506;2022-08-25T06:30:00;24.40;93.80
34644;DHT22;26931;43.498;-1.506;2022-08-25T06:32:32;24.40;93.80
34644;DHT22;26931;43.498;-1.506;2022-08-25T06:35:01;24.30;93.70
34644;DHT22;26931;43.498;-1.506;2022-08-25T06:37:27;24.30;93.60
34644;DHT22;26931;43.498;-1.506;2022-08-25T06:39:52;24.40;93.60
34644;DHT22;26931;43.498;-1.506;2022-08-25T06:42:18;24.40;93.50
34644;DHT22;26931;43.498;-1.506;2022-08-25T06:44:44;24.40;93.40
34644;DHT22;26931;43.498;-1.506;2022-08-25T06:47:10;24.30;93.30
34644;DHT22;26931;43.498;-1.506;2022-08-25T06:49:36;24.30;93.40
34644;DHT22;26931;43.498;-1.506;2022-08-25T06:52:02;24.30;93.30
34644;DHT22;26931;43.498;-1.506;2022-08-25T06:54:28;24.30;93.40
34644;DHT22;26931;43.498;-1.506;2022-08-25T06:56:54;24.30;93.30
34644;DHT22;26931;43.498;-1.506;2022-08-25T06:59:20;24.40;93.30
34644;DHT22;26931;43.498;-1.506;2022-08-25T07:01:46;24.30;93.20
34644;DHT22;26931;43.498;-1.506;2022-08-25T07:04:12;24.30;93.30
34644;DHT22;26931;43.498;-1.506;2022-08-25T07:06:38;24.30;93.20
34644;DHT22;26931;43.498;-1.506;2022-08-25T07:09:05;24.50;93.20
34644;DHT22;26931;43.498;-1.506;2022-08-25T07:11:31;24.40;93.10
34644;DHT22;26931;43.498;-1.506;2022-08-25T07:14:02;24.50;93.10
34644;DHT22;26931;43.498;-1.506;2022-08-25T07:16:29;24.40;93.10
34644;DHT22;26931;43.498;-1.506;2022-08-25T07:18:55;24.50;93.20
34644;DHT22;26931;43.498;-1.506;2022-08-25T07:21:24;24.50;93.20
34644;DHT22;26931;43.498;-1.506;2022-08-25T07:23:51;24.50;93.10
34644;DHT22;26931;43.498;-1.506;2022-08-25T07:26:18;24.60;93.00
34644;DHT22;26931;43.498;-1.506;2022-08-25T07:28:44;24.60;92.90
34644;DHT22;26931;43.498;-1.506;2022-08-25T07:31:10;24.70;92.90
34644;DHT22;26931;43.498;-1.506;2022-08-25T07:33:36;24.80;92.80
34644;DHT22;26931;43.498;-1.506;2022-08-25T07:36:02;24.80;92.70
34644;DHT22;26931;43.498;-1.506;2022-08-25T07:38:28;24.80;92.50
34644;DHT22;26931;43.498;-1.506;2022-08-25T07:41:01;24.70;92.40
34644;DHT22;26931;43.498;-1.506;2022-08-25T07:43:27;24.70;92.30
34644;DHT22;26931;43.498;-1.506;2022-08-25T07:45:53;24.70;92.20
34644;DHT22;26931;43.498;-1.506;2022-08-25T07:48:19;24.80;92.20
34644;DHT22;26931;43.498;-1.506;2022-08-25T07:50:46;24.80;92.00
34644;DHT22;26931;43.498;-1.506;2022-08-25T07:53:12;24.80;91.90
34644;DHT22;26931;43.498;-1.506;2022-08-25T07:55:38;24.90;91.80
34644;DHT22;26931;43.498;-1.506;2022-08-25T07:58:06;24.80;91.70
34644;DHT22;26931;43.498;-1.506;2022-08-25T08:00:32;24.90;91.70
34644;DHT22;26931;43.498;-1.506;2022-08-25T08:03:02;24.90;91.60
34644;DHT22;26931;43.498;-1.506;2022-08-25T08:05:28;24.90;91.50
34644;DHT22;26931;43.498;-1.506;2022-08-25T08:07:54;24.90;91.30
34644;DHT22;26931;43.498;-1.506;2022-08-25T08:10:20;24.90;91.20
34644;DHT22;26931;43.498;-1.506;2022-08-25T08:12:47;25.10;91.20
34644;DHT22;26931;43.498;-1.506;2022-08-25T08:15:14;24.90;91.00
34644;DHT22;26931;43.498;-1.506;2022-08-25T08:17:40;25.10;91.00
34644;DHT22;26931;43.498;-1.506;2022-08-25T08:20:07;25.10;90.90
34644;DHT22;26931;43.498;-1.506;2022-08-25T08:22:38;25.10;90.80
34644;DHT22;26931;43.498;-1.506;2022-08-25T08:25:04;25.20;90.80
34644;DHT22;26931;43.498;-1.506;2022-08-25T08:27:30;25.50;90.80
34644;DHT22;26931;43.498;-1.506;2022-08-25T08:29:56;25.30;90.60
34644;DHT22;26931;43.498;-1.506;2022-08-25T08:32:21;25.50;90.50
34644;DHT22;26931;43.498;-1.506;2022-08-25T08:34:47;25.50;90.30
34644;DHT22;26931;43.498;-1.506;2022-08-25T08:37:13;25.60;90.20
34644;DHT22;26931;43.498;-1.506;2022-08-25T08:39:40;25.70;90.10
34644;DHT22;26931;43.498;-1.506;2022-08-25T08:50:01;26.00;89.40
34644;DHT22;26931;43.498;-1.506;2022-08-25T08:52:49;26.10;89.30
34644;DHT22;26931;43.498;-1.506;2022-08-25T08:57:49;26.30;88.90
34644;DHT22;26931;43.498;-1.506;2022-08-25T09:00:16;26.40;88.60
34644;DHT22;26931;43.498;-1.506;2022-08-25T09:02:48;26.50;88.40
34644;DHT22;26931;43.498;-1.506;2022-08-25T09:05:17;26.60;88.10
34644;DHT22;26931;43.498;-1.506;2022-08-25T09:07:46;26.70;87.70
34644;DHT22;26931;43.498;-1.506;2022-08-25T09:10:13;26.90;87.60
34644;DHT22;26931;43.498;-1.506;2022-08-25T09:12:48;26.90;87.80
34644;DHT22;26931;43.498;-1.506;2022-08-25T09:15:25;26.90;86.80
34644;DHT22;26931;43.498;-1.506;2022-08-25T09:25:54;27.30;85.90
34644;DHT22;26931;43.498;-1.506;2022-08-25T09:33:18;27.60;85.20
34644;DHT22;26931;43.498;-1.506;2022-08-25T09:35:44;27.70;84.90
34644;DHT22;26931;43.498;-1.506;2022-08-25T09:38:11;27.70;84.60
34644;DHT22;26931;43.498;-1.506;2022-08-25T09:40:40;27.70;84.30
34644;DHT22;26931;43.498;-1.506;2022-08-25T09:43:23;27.70;84.40
34644;DHT22;26931;43.498;-1.506;2022-08-25T09:45:59;27.70;84.30
34644;DHT22;26931;43.498;-1.506;2022-08-25T09:48:30;27.70;84.20
34644;DHT22;26931;43.498;-1.506;2022-08-25T09:51:15;27.80;83.90
34644;DHT22;26931;43.498;-1.506;2022-08-25T09:53:50;27.90;83.70
34644;DHT22;26931;43.498;-1.506;2022-08-25T09:56:17;27.80;83.60
34644;DHT22;26931;43.498;-1.506;2022-08-25T09:58:44;27.90;83.50
34644;DHT22;26931;43.498;-1.506;2022-08-25T10:03:35;28.00;83.40
34644;DHT22;26931;43.498;-1.506;2022-08-25T10:06:05;28.10;83.40
34644;DHT22;26931;43.498;-1.506;2022-08-25T10:08:39;28.10;83.40
34644;DHT22;26931;43.498;-1.506;2022-08-25T10:11:07;28.20;83.40
34644;DHT22;26931;43.498;-1.506;2022-08-25T10:13:36;28.10;83.30
34644;DHT22;26931;43.498;-1.506;2022-08-25T10:16:03;28.10;83.40
34644;DHT22;26931;43.498;-1.506;2022-08-25T10:18:29;28.10;83.20
34644;DHT22;26931;43.498;-1.506;2022-08-25T10:21:03;28.10;83.10
34644;DHT22;26931;43.498;-1.506;2022-08-25T10:23:29;28.10;83.00
34644;DHT22;26931;43.498;-1.506;2022-08-25T10:25:55;28.20;82.90
34644;DHT22;26931;43.498;-1.506;2022-08-25T10:31:14;28.10;82.80
34644;DHT22;26931;43.498;-1.506;2022-08-25T10:39:00;28.00;82.60
34644;DHT22;26931;43.498;-1.506;2022-08-25T10:44:32;28.00;82.80
34644;DHT22;26931;43.498;-1.506;2022-08-25T10:47:33;28.00;82.90
34644;DHT22;26931;43.498;-1.506;2022-08-25T10:50:06;28.00;82.80
34644;DHT22;26931;43.498;-1.506;2022-08-25T10:52:38;28.00;82.80
34644;DHT22;26931;43.498;-1.506;2022-08-25T10:57:53;28.10;82.90
34644;DHT22;26931;43.498;-1.506;2022-08-25T11:00:21;28.00;82.90
34644;DHT22;26931;43.498;-1.506;2022-08-25T11:10:39;27.70;83.30
34644;DHT22;26931;43.498;-1.506;2022-08-25T11:13:07;27.60;83.50
34644;DHT22;26931;43.498;-1.506;2022-08-25T11:15:36;27.60;83.60
34644;DHT22;26931;43.498;-1.506;2022-08-25T11:18:06;27.50;83.80
34644;DHT22;26931;43.498;-1.506;2022-08-25T11:20:37;27.40;83.90
34644;DHT22;26931;43.498;-1.506;2022-08-25T11:25:33;27.40;84.20
34644;DHT22;26931;43.498;-1.506;2022-08-25T11:30:41;27.50;84.40
34644;DHT22;26931;43.498;-1.506;2022-08-25T11:33:12;27.50;84.40
34644;DHT22;26931;43.498;-1.506;2022-08-25T11:48:31;27.40;84.20
34644;DHT22;26931;43.498;-1.506;2022-08-25T11:51:01;27.40;84.30
34644;DHT22;26931;43.498;-1.506;2022-08-25T11:53:29;27.30;84.50
34644;DHT22;26931;43.498;-1.506;2022-08-25T11:56:00;27.30;84.60
34644;DHT22;26931;43.498;-1.506;2022-08-25T11:58:36;27.30;84.80
34644;DHT22;26931;43.498;-1.506;2022-08-25T12:01:03;27.30;85.00
34644;DHT22;26931;43.498;-1.506;2022-08-25T12:06:34;27.20;85.10
34644;DHT22;26931;43.498;-1.506;2022-08-25T12:16:42;27.00;85.40
34644;DHT22;26931;43.498;-1.506;2022-08-25T12:21:54;27.00;85.60
34644;DHT22;26931;43.498;-1.506;2022-08-25T12:24:23;26.90;85.60
34644;DHT22;26931;43.498;-1.506;2022-08-25T12:27:00;26.90;85.80
34644;DHT22;26931;43.498;-1.506;2022-08-25T12:34:30;26.80;86.20
34644;DHT22;26931;43.498;-1.506;2022-08-25T12:37:10;26.80;86.40
34644;DHT22;26931;43.498;-1.506;2022-08-25T12:39:42;26.70;86.50
34644;DHT22;26931;43.498;-1.506;2022-08-25T12:42:17;26.80;86.80
34644;DHT22;26931;43.498;-1.506;2022-08-25T12:44:47;26.70;86.80
34644;DHT22;26931;43.498;-1.506;2022-08-25T12:47:31;26.70;87.00
34644;DHT22;26931;43.498;-1.506;2022-08-25T12:52:42;26.60;87.20
34644;DHT22;26931;43.498;-1.506;2022-08-25T12:55:08;26.60;87.40
34644;DHT22;26931;43.498;-1.506;2022-08-25T12:57:50;26.70;87.60
34644;DHT22;26931;43.498;-1.506;2022-08-25T13:00:26;26.50;87.60
34644;DHT22;26931;43.498;-1.506;2022-08-25T13:03:18;26.70;87.90
34644;DHT22;26931;43.498;-1.506;2022-08-25T13:10:57;26.70;87.90
34644;DHT22;26931;43.498;-1.506;2022-08-25T13:16:19;26.70;87.90
34644;DHT22;26931;43.498;-1.506;2022-08-25T13:18:45;26.60;87.80
34644;DHT22;26931;43.498;-1.506;2022-08-25T13:21:17;26.60;87.90
34644;DHT22;26931;43.498;-1.506;2022-08-25T13:23:45;26.60;87.90
34644;DHT22;26931;43.498;-1.506;2022-08-25T13:26:16;26.60;87.90
34644;DHT22;26931;43.498;-1.506;2022-08-25T13:28:49;26.60;88.10
34644;DHT22;26931;43.498;-1.506;2022-08-25T13:31:17;26.50;88.10
34644;DHT22;26931;43.498;-1.506;2022-08-25T13:33:51;26.50;88.30
34644;DHT22;26931;43.498;-1.506;2022-08-25T13:36:17;26.50;88.30
34644;DHT22;26931;43.498;-1.506;2022-08-25T13:39:13;26.40;88.40
34644;DHT22;26931;43.498;-1.506;2022-08-25T13:41:43;26.50;88.60
34644;DHT22;26931;43.498;-1.506;2022-08-25T13:44:10;26.60;88.70
34644;DHT22;26931;43.498;-1.506;2022-08-25T13:46:36;26.50;88.60
34644;DHT22;26931;43.498;-1.506;2022-08-25T13:49:03;26.50;88.70
34644;DHT22;26931;43.498;-1.506;2022-08-25T13:51:28;26.50;88.70
34644;DHT22;26931;43.498;-1.506;2022-08-25T13:53:58;26.50;88.60
34644;DHT22;26931;43.498;-1.506;2022-08-25T13:56:26;26.50;88.60
34644;DHT22;26931;43.498;-1.506;2022-08-25T13:58:52;26.50;88.60
34644;DHT22;26931;43.498;-1.506;2022-08-25T14:01:19;26.50;88.50
34644;DHT22;26931;43.498;-1.506;2022-08-25T14:03:47;26.40;88.40
34644;DHT22;26931;43.498;-1.506;2022-08-25T14:08:43;26.50;88.30
34644;DHT22;26931;43.498;-1.506;2022-08-25T14:14:08;26.40;88.30
34644;DHT22;26931;43.498;-1.506;2022-08-25T14:16:37;26.40;88.40
34644;DHT22;26931;43.498;-1.506;2022-08-25T14:19:04;26.40;88.30
34644;DHT22;26931;43.498;-1.506;2022-08-25T14:21:31;26.40;88.20
34644;DHT22;26931;43.498;-1.506;2022-08-25T14:23:58;26.40;88.30
34644;DHT22;26931;43.498;-1.506;2022-08-25T14:26:24;26.40;88.40
34644;DHT22;26931;43.498;-1.506;2022-08-25T14:28:49;26.40;88.40
34644;DHT22;26931;43.498;-1.506;2022-08-25T14:31:18;26.40;88.40
34644;DHT22;26931;43.498;-1.506;2022-08-25T14:33:53;26.40;88.50
34644;DHT22;26931;43.498;-1.506;2022-08-25T14:36:20;26.40;88.40
34644;DHT22;26931;43.498;-1.506;2022-08-25T14:38:45;26.30;88.30
34644;DHT22;26931;43.498;-1.506;2022-08-25T14:41:11;26.40;88.40
34644;DHT22;26931;43.498;-1.506;2022-08-25T14:43:36;26.30;88.30
34644;DHT22;26931;43.498;-1.506;2022-08-25T14:46:05;26.30;88.30
34644;DHT22;26931;43.498;-1.506;2022-08-25T14:48:35;26.50;88.40
34644;DHT22;26931;43.498;-1.506;2022-08-25T14:51:03;26.40;88.20
34644;DHT22;26931;43.498;-1.506;2022-08-25T14:53:29;26.40;88.10
34644;DHT22;26931;43.498;-1.506;2022-08-25T14:55:55;26.40;88.00
34644;DHT22;26931;43.498;-1.506;2022-08-25T14:58:22;26.40;87.80
34644;DHT22;26931;43.498;-1.506;2022-08-25T15:00:47;26.40;87.90
34644;DHT22;26931;43.498;-1.506;2022-08-25T15:03:14;26.40;87.90
34644;DHT22;26931;43.498;-1.506;2022-08-25T15:05:40;26.50;87.90
34644;DHT22;26931;43.498;-1.506;2022-08-25T15:08:06;26.40;87.90
34644;DHT22;26931;43.498;-1.506;2022-08-25T15:10:50;26.40;87.90
34644;DHT22;26931;43.498;-1.506;2022-08-25T15:13:16;26.40;87.90
34644;DHT22;26931;43.498;-1.506;2022-08-25T15:15:42;26.40;87.80
34644;DHT22;26931;43.498;-1.506;2022-08-25T15:18:08;26.60;88.00
34644;DHT22;26931;43.498;-1.506;2022-08-25T15:20:34;26.50;87.90
34644;DHT22;26931;43.498;-1.506;2022-08-25T15:23:00;26.50;87.80
34644;DHT22;26931;43.498;-1.506;2022-08-25T15:25:26;26.50;87.90
34644;DHT22;26931;43.498;-1.506;2022-08-25T15:27:52;26.50;87.90
34644;DHT22;26931;43.498;-1.506;2022-08-25T15:30:18;26.50;88.20
34644;DHT22;26931;43.498;-1.506;2022-08-25T15:32:44;26.40;88.50
34644;DHT22;26931;43.498;-1.506;2022-08-25T15:35:10;26.40;88.90
34644;DHT22;26931;43.498;-1.506;2022-08-25T15:37:36;26.40;89.40
34644;DHT22;26931;43.498;-1.506;2022-08-25T15:40:03;26.30;89.70
34644;DHT22;26931;43.498;-1.506;2022-08-25T15:42:28;26.30;90.00
34644;DHT22;26931;43.498;-1.506;2022-08-25T15:44:54;26.20;90.10
34644;DHT22;26931;43.498;-1.506;2022-08-25T15:47:20;26.20;90.30
34644;DHT22;26931;43.498;-1.506;2022-08-25T15:49:46;26.10;90.30
34644;DHT22;26931;43.498;-1.506;2022-08-25T15:52:12;26.10;90.40
34644;DHT22;26931;43.498;-1.506;2022-08-25T15:54:38;26.10;90.50
34644;DHT22;26931;43.498;-1.506;2022-08-25T15:57:04;26.10;90.60
34644;DHT22;26931;43.498;-1.506;2022-08-25T15:59:30;25.90;90.50
34644;DHT22;26931;43.498;-1.506;2022-08-25T16:01:56;26.00;90.60
34644;DHT22;26931;43.498;-1.506;2022-08-25T16:04:22;26.00;90.70
34644;DHT22;26931;43.498;-1.506;2022-08-25T16:06:48;25.90;90.60
34644;DHT22;26931;43.498;-1.506;2022-08-25T16:09:14;25.80;90.60
34644;DHT22;26931;43.498;-1.506;2022-08-25T16:11:39;25.90;90.70
34644;DHT22;26931;43.498;-1.506;2022-08-25T16:14:07;26.00;90.70
34644;DHT22;26931;43.498;-1.506;2022-08-25T16:16:33;25.90;90.70
34644;DHT22;26931;43.498;-1.506;2022-08-25T16:18:59;25.90;90.80
34644;DHT22;26931;43.498;-1.506;2022-08-25T16:21:29;25.80;90.70
34644;DHT22;26931;43.498;-1.506;2022-08-25T16:23:57;25.80;90.70
34644;DHT22;26931;43.498;-1.506;2022-08-25T16:26:25;25.70;90.70
34644;DHT22;26931;43.498;-1.506;2022-08-25T16:28:52;25.80;90.80
34644;DHT22;26931;43.498;-1.506;2022-08-25T16:31:18;25.80;90.90
34644;DHT22;26931;43.498;-1.506;2022-08-25T16:33:44;25.80;90.90
34644;DHT22;26931;43.498;-1.506;2022-08-25T16:36:15;25.70;90.70
34644;DHT22;26931;43.498;-1.506;2022-08-25T16:38:41;25.70;90.70
34644;DHT22;26931;43.498;-1.506;2022-08-25T16:41:08;25.70;90.70
34644;DHT22;26931;43.498;-1.506;2022-08-25T16:43:34;25.70;90.70
34644;DHT22;26931;43.498;-1.506;2022-08-25T16:46:01;25.90;90.80
34644;DHT22;26931;43.498;-1.506;2022-08-25T16:48:28;25.70;90.70
34644;DHT22;26931;43.498;-1.506;2022-08-25T16:50:55;25.60;90.80
34644;DHT22;26931;43.498;-1.506;2022-08-25T16:53:20;25.80;90.80
34644;DHT22;26931;43.498;-1.506;2022-08-25T16:56:05;25.60;90.80
34644;DHT22;26931;43.498;-1.506;2022-08-25T16:58:31;25.60;90.80
34644;DHT22;26931;43.498;-1.506;2022-08-25T17:01:09;25.60;90.90
34644;DHT22;26931;43.498;-1.506;2022-08-25T17:03:37;25.50;91.00